Time;durP1;ratioP1;P1;durP2;ratioP2;P2;SDS_P1;SDS_P2;PMS_P1;PMS_P2;Temp;Humidity;BMP_temperature;BMP_pressure;BME280_temperature;BME280_humidity;BME280_pressure;Samples;Min_cycle;Max_cycle;Signal;HPM_P1;HPM_P2
2023/06/21 00:02:16;;;;;;;7.28;6.68;;;;;;;;;;5054432;28;20041;-72
2023/06/21 00:04:41;;;;;;;7.68;7.03;;;;;;;;;;5054301;28;20040;-68
2023/06/21 00:07:07;;;;;;;7.82;7.03;;;;;;;;;;5054403;28;20033;-68
2023/06/21 00:09:32;;;;;;;8.27;7.45;;;;;;;;;;5047084;28;20499;-68
2023/06/21 00:11:57;;;;;;;7.72;7.10;;;;;;;;;;5054446;28;20076;-67
2023/06/21 00:14:23;;;;;;;7.75;7.15;;;;;;;;;;5053988;28;20056;-66
2023/06/21 00:16:49;;;;;;;8.27;7.57;;;;;;;;;;5054057;28;20546;-67
2023/06/21 00:19:15;;;;;;;8.02;7.22;;;;;;;;;;5061296;22;20456;-69
2023/06/21 00:21:41;;;;;;;7.93;7.30;;;;;;;;;;5033658;28;20041;-69
2023/06/21 00:24:07;;;;;;;7.95;7.22;;;;;;;;;;5059511;23;20049;-69
2023/06/21 00:26:32;;;;;;;10.43;9.52;;;;;;;;;;5035675;28;20041;-70
2023/06/21 00:29:00;;;;;;;10.48;9.40;;;;;;;;;;5053986;28;20424;-69
2023/06/21 00:31:25;;;;;;;10.15;9.25;;;;;;;;;;5053682;28;20072;-69
2023/06/21 00:33:50;;;;;;;9.98;8.98;;;;;;;;;;5053484;28;20084;-69
2023/06/21 00:36:16;;;;;;;10.13;9.13;;;;;;;;;;5053803;28;20048;-70
2023/06/21 00:38:41;;;;;;;9.27;8.38;;;;;;;;;;5019902;28;20088;-69
2023/06/21 00:41:08;;;;;;;9.02;8.27;;;;;;;;;;5035582;28;20055;-71
2023/06/21 00:43:36;;;;;;;9.63;8.68;;;;;;;;;;5053424;28;20484;-70
2023/06/21 00:46:02;;;;;;;9.13;8.23;;;;;;;;;;5035731;28;20424;-70
2023/06/21 00:48:28;;;;;;;9.35;8.55;;;;;;;;;;5053263;28;20079;-69
2023/06/21 00:50:55;;;;;;;9.07;8.25;;;;;;;;;;5034979;28;20571;-70
2023/06/21 00:53:21;;;;;;;8.57;7.78;;;;;;;;;;5053055;28;20112;-70
2023/06/21 00:55:46;;;;;;;7.30;6.70;;;;;;;;;;5035326;28;20063;-70
2023/06/21 00:58:12;;;;;;;7.88;7.22;;;;;;;;;;5035191;28;20476;-69
2023/06/21 01:00:37;;;;;;;7.90;7.25;;;;;;;;;;5053188;28;20511;-69
2023/06/21 01:03:03;;;;;;;8.57;7.88;;;;;;;;;;5035415;28;20045;-69
2023/06/21 01:05:33;;;;;;;8.40;7.60;;;;;;;;;;5036259;28;20037;-70
2023/06/21 01:08:00;;;;;;;8.52;7.72;;;;;;;;;;5039985;28;20036;-70
2023/06/21 01:10:32;;;;;;;7.63;7.00;;;;;;;;;;5057831;28;20048;-70
2023/06/21 01:13:09;;;;;;;7.63;7.03;;;;;;;;;;5039937;28;20040;-70
2023/06/21 01:15:45;;;;;;;8.63;7.90;;;;;;;;;;5057830;28;20380;-70
2023/06/21 01:18:13;;;;;;;8.57;7.75;;;;;;;;;;5039771;28;20025;-69
2023/06/21 01:20:40;;;;;;;10.95;8.50;;;;;;;;;;5057501;28;20183;-71
2023/06/21 01:23:09;;;;;;;8.98;8.25;;;;;;;;;;5057101;28;20040;-70
2023/06/21 01:25:47;;;;;;;8.17;7.37;;;;;;;;;;5039557;28;20063;-69
2023/06/21 01:28:31;;;;;;;7.60;6.90;;;;;;;;;;5056968;28;20178;-70
2023/06/21 01:30:57;;;;;;;8.20;7.53;;;;;;;;;;5038863;28;20040;-70
2023/06/21 01:33:23;;;;;;;8.20;7.55;;;;;;;;;;5039047;28;20104;-70
2023/06/21 01:35:52;;;;;;;8.13;7.53;;;;;;;;;;5038886;28;20025;-70
2023/06/21 01:38:18;;;;;;;8.13;7.50;;;;;;;;;;5038782;28;20431;-69
2023/06/21 01:40:44;;;;;;;7.93;7.30;;;;;;;;;;5056603;28;20386;-68
2023/06/21 01:43:09;;;;;;;8.02;7.32;;;;;;;;;;5056797;28;20037;-70
2023/06/21 01:45:34;;;;;;;8.23;7.53;;;;;;;;;;5056068;28;20041;-70
2023/06/21 01:48:02;;;;;;;7.72;7.13;;;;;;;;;;5038483;28;20025;-70
2023/06/21 01:50:27;;;;;;;8.43;7.60;;;;;;;;;;5038554;28;20048;-70
2023/06/21 01:52:54;;;;;;;9.20;8.43;;;;;;;;;;5038833;28;20041;-71
2023/06/21 01:55:20;;;;;;;9.48;8.57;;;;;;;;;;5056356;28;20511;-70
2023/06/21 01:57:45;;;;;;;9.52;8.70;;;;;;;;;;5038275;28;20033;-70
2023/06/21 02:00:17;;;;;;;10.98;8.48;;;;;;;;;;5056154;28;20061;-70
2023/06/21 02:03:00;;;;;;;9.45;8.55;;;;;;;;;;5038232;28;20048;-70
2023/06/21 02:05:27;;;;;;;8.90;8.10;;;;;;;;;;5038392;28;20052;-64
2023/06/21 02:07:53;;;;;;;11.05;9.95;;;;;;;;;;5037781;28;20043;-67
2023/06/21 02:10:19;;;;;;;9.52;8.75;;;;;;;;;;5056564;28;20079;-67
2023/06/21 02:12:48;;;;;;;10.20;9.15;;;;;;;;;;5038516;28;20056;-68
2023/06/21 02:15:14;;;;;;;9.20;8.40;;;;;;;;;;5055292;28;20120;-68
2023/06/21 02:17:39;;;;;;;8.98;8.27;;;;;;;;;;5055274;28;20053;-68
2023/06/21 02:20:09;;;;;;;8.63;7.93;;;;;;;;;;5038568;28;20033;-68
2023/06/21 02:22:35;;;;;;;8.65;7.93;;;;;;;;;;5055997;28;20045;-67
2023/06/21 02:25:00;;;;;;;9.88;9.00;;;;;;;;;;5056029;28;20043;-66
2023/06/21 02:27:25;;;;;;;9.60;8.70;;;;;;;;;;5038456;28;20118;-65
2023/06/21 02:29:51;;;;;;;10.05;9.18;;;;;;;;;;5056000;28;20385;-68
2023/06/21 02:32:16;;;;;;;9.82;8.90;;;;;;;;;;5038169;28;20068;-68
2023/06/21 02:34:42;;;;;;;9.57;8.77;;;;;;;;;;5056010;28;20120;-68
2023/06/21 02:37:11;;;;;;;9.75;8.85;;;;;;;;;;5037643;28;20025;-68
2023/06/21 02:39:37;;;;;;;9.50;8.70;;;;;;;;;;5055584;28;20044;-68
2023/06/21 02:42:03;;;;;;;9.68;8.68;;;;;;;;;;5037828;28;20037;-68
2023/06/21 02:44:29;;;;;;;9.93;9.02;;;;;;;;;;5055510;28;20044;-69
2023/06/21 02:46:56;;;;;;;10.43;9.43;;;;;;;;;;5037927;28;20037;-70
2023/06/21 02:49:25;;;;;;;10.65;9.68;;;;;;;;;;5055788;28;20068;-69
2023/06/21 02:51:51;;;;;;;11.30;9.93;;;;;;;;;;5021153;28;20083;-69
2023/06/21 02:54:16;;;;;;;9.10;8.32;;;;;;;;;;5021004;28;20037;-69
2023/06/21 02:56:45;;;;;;;10.77;8.98;;;;;;;;;;5037608;28;20037;-67
2023/06/21 02:59:10;;;;;;;10.18;9.25;;;;;;;;;;5055745;28;20500;-68
2023/06/21 03:01:36;;;;;;;10.52;9.25;;;;;;;;;;5055774;28;20037;-70
2023/06/21 03:04:03;;;;;;;9.68;8.68;;;;;;;;;;5055284;28;20040;-70
2023/06/21 03:06:33;;;;;;;10.13;9.07;;;;;;;;;;5055476;28;20032;-71
2023/06/21 03:09:00;;;;;;;9.90;9.00;;;;;;;;;;5055235;28;20037;-71
2023/06/21 03:11:27;;;;;;;10.02;8.35;;;;;;;;;;5037508;28;20118;-70
2023/06/21 03:13:53;;;;;;;8.93;8.15;;;;;;;;;;5037459;28;20029;-70
2023/06/21 03:16:18;;;;;;;9.10;8.30;;;;;;;;;;5037109;28;20377;-70
2023/06/21 03:18:43;;;;;;;9.38;8.48;;;;;;;;;;5037408;28;20484;-70
2023/06/21 03:21:09;;;;;;;9.55;8.73;;;;;;;;;;5037312;28;20534;-70
2023/06/21 03:23:36;;;;;;;10.73;9.73;;;;;;;;;;5036722;28;20036;-70
2023/06/21 03:26:02;;;;;;;11.18;10.23;;;;;;;;;;5020584;28;20033;-70
2023/06/21 03:28:27;;;;;;;11.32;10.32;;;;;;;;;;5035892;28;20083;-70
2023/06/21 03:30:52;;;;;;;11.15;10.13;;;;;;;;;;5054885;28;20468;-71
2023/06/21 03:33:18;;;;;;;10.27;9.32;;;;;;;;;;5037205;28;20033;-71
2023/06/21 03:35:44;;;;;;;9.73;8.68;;;;;;;;;;5036541;28;20443;-71
2023/06/21 03:38:09;;;;;;;9.38;8.55;;;;;;;;;;5020114;28;20033;-71
2023/06/21 03:40:39;;;;;;;10.63;9.55;;;;;;;;;;5036538;28;20562;-70
2023/06/21 03:43:05;;;;;;;10.80;9.82;;;;;;;;;;5036462;28;20036;-71
2023/06/21 03:45:31;;;;;;;10.27;9.27;;;;;;;;;;5019916;28;20516;-70
2023/06/21 03:48:02;;;;;;;10.20;9.25;;;;;;;;;;5054803;28;20045;-64
2023/06/21 03:50:29;;;;;;;9.68;8.80;;;;;;;;;;5036449;28;20132;-64
2023/06/21 03:52:54;;;;;;;10.55;9.50;;;;;;;;;;5036328;28;20168;-64
2023/06/21 03:55:20;;;;;;;9.98;8.98;;;;;;;;;;5036717;28;20479;-64
2023/06/21 03:57:47;;;;;;;10.43;9.43;;;;;;;;;;5054584;28;20512;-63
2023/06/21 04:00:13;;;;;;;9.75;8.85;;;;;;;;;;5036407;28;20071;-63
2023/06/21 04:02:42;;;;;;;9.57;8.40;;;;;;;;;;5054144;28;20377;-64
2023/06/21 04:05:10;;;;;;;8.75;7.95;;;;;;;;;;5036123;28;20041;-64
2023/06/21 04:07:36;;;;;;;9.43;8.65;;;;;;;;;;5035872;28;20562;-65
2023/06/21 04:10:02;;;;;;;9.77;8.63;;;;;;;;;;5036625;28;20061;-65
2023/06/21 04:12:28;;;;;;;8.93;8.10;;;;;;;;;;5054340;28;20488;-64
2023/06/21 04:14:55;;;;;;;9.23;8.50;;;;;;;;;;5053902;28;20037;-62
2023/06/21 04:17:20;;;;;;;9.05;8.25;;;;;;;;;;5053148;28;20116;-64
2023/06/21 04:19:46;;;;;;;8.75;7.95;;;;;;;;;;5035861;28;20083;-65
2023/06/21 04:22:12;;;;;;;8.80;7.93;;;;;;;;;;5036690;28;20048;-63
2023/06/21 04:24:37;;;;;;;9.15;8.15;;;;;;;;;;5035718;28;20044;-65
2023/06/21 04:27:03;;;;;;;9.40;8.60;;;;;;;;;;5051969;28;20041;-64
2023/06/21 04:29:29;;;;;;;8.95;8.15;;;;;;;;;;5046265;28;20040;-64
2023/06/21 04:31:55;;;;;;;8.93;8.13;;;;;;;;;;5053604;28;20099;-65
2023/06/21 04:34:20;;;;;;;8.63;7.85;;;;;;;;;;5053565;28;20111;-64
2023/06/21 04:36:47;;;;;;;9.50;8.52;;;;;;;;;;5053777;28;20029;-64
2023/06/21 04:39:15;;;;;;;9.20;8.40;;;;;;;;;;5053055;28;20167;-64
2023/06/21 04:41:40;;;;;;;9.40;8.50;;;;;;;;;;5053536;28;20072;-64
2023/06/21 04:44:05;;;;;;;9.77;8.90;;;;;;;;;;5053695;28;20098;-64
2023/06/21 04:46:31;;;;;;;10.32;9.18;;;;;;;;;;5052542;28;20045;-64
2023/06/21 04:48:56;;;;;;;10.10;9.10;;;;;;;;;;5052686;28;20096;-64
2023/06/21 04:51:21;;;;;;;10.55;9.57;;;;;;;;;;5053544;28;20077;-64
2023/06/21 04:53:48;;;;;;;14.00;10.05;;;;;;;;;;5052719;28;20040;-62
2023/06/21 04:56:14;;;;;;;14.50;10.00;;;;;;;;;;5053329;28;20055;-60
2023/06/21 04:58:40;;;;;;;10.38;9.48;;;;;;;;;;5053330;28;20037;-58
2023/06/21 05:01:05;;;;;;;10.57;9.48;;;;;;;;;;5035774;28;20037;-64
2023/06/21 05:03:32;;;;;;;9.85;8.88;;;;;;;;;;5053492;28;20051;-64
2023/06/21 05:05:59;;;;;;;10.70;9.73;;;;;;;;;;5035751;28;20029;-64
2023/06/21 05:08:24;;;;;;;12.15;10.68;;;;;;;;;;5052964;28;20231;-64
2023/06/21 05:10:49;;;;;;;11.93;10.77;;;;;;;;;;5053762;28;20151;-64
2023/06/21 05:13:14;;;;;;;11.60;10.40;;;;;;;;;;5053343;28;20083;-63
2023/06/21 05:15:40;;;;;;;11.32;10.15;;;;;;;;;;5053408;28;20044;-63
2023/06/21 05:18:05;;;;;;;11.30;9.70;;;;;;;;;;5035556;28;20059;-63
2023/06/21 05:20:31;;;;;;;10.40;9.45;;;;;;;;;;5053353;28;20029;-61
2023/06/21 05:22:56;;;;;;;11.05;9.95;;;;;;;;;;5053050;28;20044;-61
2023/06/21 05:25:22;;;;;;;11.50;10.40;;;;;;;;;;5035651;28;20065;-61
2023/06/21 05:27:47;;;;;;;11.57;9.20;;;;;;;;;;5053539;28;20124;-65
2023/06/21 05:30:12;;;;;;;11.10;10.07;;;;;;;;;;5035532;28;20045;-66
2023/06/21 05:32:37;;;;;;;10.65;9.65;;;;;;;;;;5035104;28;20037;-70
2023/06/21 05:35:13;;;;;;;9.52;8.63;;;;;;;;;;5146075;23;20375;-66
2023/06/21 05:37:48;;;;;;;11.02;10.13;;;;;;;;;;5051115;28;20150;-66
2023/06/21 05:40:13;;;;;;;11.63;10.48;;;;;;;;;;5033434;28;20457;-65
2023/06/21 05:42:42;;;;;;;13.32;10.40;;;;;;;;;;5032876;28;20041;-66
2023/06/21 05:45:07;;;;;;;11.40;9.30;;;;;;;;;;5015640;28;20195;-65
2023/06/21 05:47:33;;;;;;;11.98;10.32;;;;;;;;;;5032950;28;20593;-65
2023/06/21 05:49:58;;;;;;;10.40;9.45;;;;;;;;;;5031337;28;20041;-66
2023/06/21 05:52:23;;;;;;;9.88;8.85;;;;;;;;;;5033837;28;20045;-66
2023/06/21 05:54:49;;;;;;;10.20;9.25;;;;;;;;;;5018338;28;20200;-65
2023/06/21 05:57:15;;;;;;;12.30;10.90;;;;;;;;;;5018654;28;20041;-65
2023/06/21 05:59:43;;;;;;;12.82;11.63;;;;;;;;;;5018418;28;20428;-65
2023/06/21 06:02:08;;;;;;;11.07;9.98;;;;;;;;;;5044316;28;20047;-66
2023/06/21 06:04:34;;;;;;;11.63;10.43;;;;;;;;;;5045405;28;20120;-66
2023/06/21 06:06:59;;;;;;;12.05;10.85;;;;;;;;;;5054256;28;20040;-66
2023/06/21 06:09:25;;;;;;;12.00;10.93;;;;;;;;;;5056412;28;20037;-66
2023/06/21 06:11:50;;;;;;;12.82;11.52;;;;;;;;;;5037674;28;20485;-65
2023/06/21 06:14:16;;;;;;;10.75;9.75;;;;;;;;;;5055358;28;20458;-65
2023/06/21 06:16:41;;;;;;;12.10;10.75;;;;;;;;;;5054817;28;20032;-62
2023/06/21 06:19:07;;;;;;;11.95;10.60;;;;;;;;;;5054908;28;20029;-63
2023/06/21 06:21:32;;;;;;;10.77;9.90;;;;;;;;;;5054951;28;20037;-69
2023/06/21 06:23:57;;;;;;;12.20;11.02;;;;;;;;;;5054976;28;20021;-69
2023/06/21 06:26:24;;;;;;;13.93;10.82;;;;;;;;;;5053804;28;20041;-68
2023/06/21 06:28:50;;;;;;;12.57;11.27;;;;;;;;;;5055555;28;20095;-68
2023/06/21 06:31:18;;;;;;;13.23;11.82;;;;;;;;;;5055284;28;20045;-68
2023/06/21 06:33:43;;;;;;;13.02;11.68;;;;;;;;;;5054690;28;20057;-68
2023/06/21 06:36:08;;;;;;;12.65;11.40;;;;;;;;;;5054653;28;20095;-63
2023/06/21 06:38:34;;;;;;;12.60;11.32;;;;;;;;;;5054681;28;20033;-63
2023/06/21 06:40:59;;;;;;;13.70;11.82;;;;;;;;;;5054608;28;20400;-63
2023/06/21 06:43:24;;;;;;;12.50;11.30;;;;;;;;;;5054794;28;20090;-63
2023/06/21 06:45:50;;;;;;;13.93;12.00;;;;;;;;;;5054602;28;20484;-63
2023/06/21 06:48:15;;;;;;;12.30;11.15;;;;;;;;;;5036427;28;20476;-63
2023/06/21 06:50:42;;;;;;;13.05;11.38;;;;;;;;;;5036916;28;20037;-62
2023/06/21 06:53:08;;;;;;;12.77;11.02;;;;;;;;;;5055205;28;20151;-63
2023/06/21 06:55:34;;;;;;;13.48;11.18;;;;;;;;;;5037220;28;20029;-63
2023/06/21 06:58:00;;;;;;;12.15;10.70;;;;;;;;;;5055219;28;20116;-63
2023/06/21 07:00:25;;;;;;;12.27;10.70;;;;;;;;;;5037463;28;20499;-63
2023/06/21 07:02:56;;;;;;;11.73;10.50;;;;;;;;;;5055071;28;20061;-63
2023/06/21 07:05:22;;;;;;;12.20;10.90;;;;;;;;;;5036628;28;20396;-63
2023/06/21 07:07:47;;;;;;;11.10;9.90;;;;;;;;;;5053484;28;20032;-63
2023/06/21 07:10:12;;;;;;;9.95;8.98;;;;;;;;;;5035225;28;20544;-63
2023/06/21 07:12:39;;;;;;;11.30;8.90;;;;;;;;;;5035368;28;20029;-63
2023/06/21 07:15:04;;;;;;;12.13;9.88;;;;;;;;;;5051810;28;20056;-63
2023/06/21 07:17:30;;;;;;;11.18;10.05;;;;;;;;;;5034918;28;20484;-63
2023/06/21 07:19:55;;;;;;;10.52;9.05;;;;;;;;;;5053601;28;20434;-63
2023/06/21 07:22:20;;;;;;;9.07;8.15;;;;;;;;;;5036239;28;20041;-63
2023/06/21 07:24:46;;;;;;;9.43;8.55;;;;;;;;;;5036532;28;20041;-63
2023/06/21 07:27:12;;;;;;;10.90;8.43;;;;;;;;;;5054860;28;20025;-63
2023/06/21 07:29:37;;;;;;;11.90;8.95;;;;;;;;;;5037154;28;20393;-63
2023/06/21 07:32:02;;;;;;;10.43;9.05;;;;;;;;;;5054471;28;20389;-63
2023/06/21 07:34:29;;;;;;;7.82;7.03;;;;;;;;;;5055083;28;20384;-63
2023/06/21 07:36:55;;;;;;;10.57;7.85;;;;;;;;;;5054295;28;20124;-63
2023/06/21 07:39:20;;;;;;;9.55;7.85;;;;;;;;;;5037030;28;20069;-63
2023/06/21 07:41:45;;;;;;;8.95;7.70;;;;;;;;;;5036513;28;20063;-63
2023/06/21 07:44:11;;;;;;;9.90;8.90;;;;;;;;;;5054292;28;20037;-63
2023/06/21 07:46:36;;;;;;;11.57;8.95;;;;;;;;;;5054148;28;20037;-63
2023/06/21 07:49:01;;;;;;;11.30;9.65;;;;;;;;;;5054554;28;20427;-63
2023/06/21 07:51:26;;;;;;;10.25;8.90;;;;;;;;;;5054109;28;20040;-63
2023/06/21 07:53:52;;;;;;;8.65;7.38;;;;;;;;;;5054179;28;20159;-63
2023/06/21 07:56:17;;;;;;;9.13;7.55;;;;;;;;;;5054439;28;20029;-63
2023/06/21 07:58:43;;;;;;;13.07;8.30;;;;;;;;;;5036368;28;20041;-63
2023/06/21 08:01:09;;;;;;;9.32;8.43;;;;;;;;;;5054011;28;20392;-63
2023/06/21 08:03:34;;;;;;;9.02;8.10;;;;;;;;;;5054399;28;20040;-63
2023/06/21 08:05:59;;;;;;;8.13;7.32;;;;;;;;;;5053992;28;20052;-63
2023/06/21 08:08:25;;;;;;;8.40;7.50;;;;;;;;;;5036039;28;20047;-63
2023/06/21 08:10:50;;;;;;;8.07;7.30;;;;;;;;;;5054153;28;20059;-63
2023/06/21 08:13:18;;;;;;;7.72;6.97;;;;;;;;;;5054396;28;20365;-63
2023/06/21 08:15:44;;;;;;;8.40;7.22;;;;;;;;;;5053389;28;20116;-63
2023/06/21 08:18:09;;;;;;;7.43;6.80;;;;;;;;;;5053926;28;20059;-63
2023/06/21 08:20:34;;;;;;;8.63;7.90;;;;;;;;;;5053730;28;20558;-63
2023/06/21 08:23:00;;;;;;;11.65;8.60;;;;;;;;;;5035852;28;20103;-63
2023/06/21 08:25:25;;;;;;;6.95;6.43;;;;;;;;;;5053532;28;20033;-63
2023/06/21 08:27:50;;;;;;;7.10;6.55;;;;;;;;;;5053903;28;20045;-68
2023/06/21 08:30:16;;;;;;;7.47;6.78;;;;;;;;;;5073340;23;20056;-63
2023/06/21 08:32:41;;;;;;;7.53;6.85;;;;;;;;;;5015859;28;20038;-63
2023/06/21 08:35:06;;;;;;;8.52;7.22;;;;;;;;;;5015885;28;20477;-63
2023/06/21 08:37:32;;;;;;;7.88;7.15;;;;;;;;;;5015811;28;20038;-63
2023/06/21 08:39:58;;;;;;;9.48;8.20;;;;;;;;;;5033806;28;20037;-63
2023/06/21 08:42:24;;;;;;;7.50;6.75;;;;;;;;;;5033158;28;20033;-63
2023/06/21 08:44:53;;;;;;;8.48;7.78;;;;;;;;;;5032844;28;20440;-63
2023/06/21 08:47:20;;;;;;;7.25;6.65;;;;;;;;;;5014338;28;20029;-63
2023/06/21 08:49:46;;;;;;;6.68;6.18;;;;;;;;;;5031986;28;20057;-63
2023/06/21 08:52:15;;;;;;;7.70;7.10;;;;;;;;;;5031831;28;20080;-63
2023/06/21 08:54:42;;;;;;;7.28;6.68;;;;;;;;;;5015090;28;20029;-63
2023/06/21 08:57:14;;;;;;;7.22;6.68;;;;;;;;;;5015675;28;20531;-63
2023/06/21 08:59:49;;;;;;;7.43;6.72;;;;;;;;;;5031433;28;20030;-63
2023/06/21 09:02:35;;;;;;;7.70;6.90;;;;;;;;;;5032784;28;20179;-63
2023/06/21 09:05:03;;;;;;;7.78;7.00;;;;;;;;;;4975980;28;20423;-63
2023/06/21 09:07:29;;;;;;;7.05;6.50;;;;;;;;;;5032919;28;20504;-63
2023/06/21 09:09:56;;;;;;;7.53;6.90;;;;;;;;;;5031074;28;20045;-63
2023/06/21 09:12:21;;;;;;;7.40;6.63;;;;;;;;;;5031058;28;20045;-63
2023/06/21 09:14:47;;;;;;;7.13;6.53;;;;;;;;;;5031218;28;20124;-63
2023/06/21 09:17:13;;;;;;;7.15;6.57;;;;;;;;;;5013669;28;20030;-63
2023/06/21 09:19:40;;;;;;;7.55;6.93;;;;;;;;;;5031706;28;20035;-63
2023/06/21 09:22:06;;;;;;;7.10;6.50;;;;;;;;;;5031610;28;20116;-63
2023/06/21 09:24:31;;;;;;;7.75;7.15;;;;;;;;;;5032865;28;20084;-63
2023/06/21 09:26:56;;;;;;;7.68;7.07;;;;;;;;;;5017607;28;20096;-63
2023/06/21 09:29:22;;;;;;;8.05;7.38;;;;;;;;;;5037074;28;20025;-63
2023/06/21 09:31:47;;;;;;;7.80;7.20;;;;;;;;;;5036680;28;20481;-63
2023/06/21 09:34:13;;;;;;;7.88;7.15;;;;;;;;;;5036852;28;20041;-63
2023/06/21 09:36:40;;;;;;;7.68;6.90;;;;;;;;;;5037165;28;20108;-63
2023/06/21 09:39:09;;;;;;;8.20;7.60;;;;;;;;;;5037079;28;20042;-63
2023/06/21 09:41:36;;;;;;;8.88;8.13;;;;;;;;;;5036974;28;20073;-63
2023/06/21 09:44:01;;;;;;;8.70;7.75;;;;;;;;;;5019060;28;20520;-63
2023/06/21 09:46:27;;;;;;;8.23;7.57;;;;;;;;;;5052606;28;20038;-63
2023/06/21 09:48:52;;;;;;;8.45;7.70;;;;;;;;;;5018871;28;20124;-63
2023/06/21 09:51:22;;;;;;;8.68;7.78;;;;;;;;;;5036788;28;20069;-63
2023/06/21 09:53:50;;;;;;;9.57;8.53;;;;;;;;;;5018730;28;20038;-63
2023/06/21 09:56:17;;;;;;;9.13;8.23;;;;;;;;;;5018721;28;20351;-63
2023/06/21 09:58:43;;;;;;;9.52;8.70;;;;;;;;;;5036367;28;20037;-63
2023/06/21 10:01:09;;;;;;;7.75;7.05;;;;;;;;;;5019267;28;20091;-63
2023/06/21 10:03:34;;;;;;;8.85;8.05;;;;;;;;;;5036406;28;20030;-63
2023/06/21 10:06:01;;;;;;;10.65;8.60;;;;;;;;;;5036327;28;20454;-63
2023/06/21 10:08:33;;;;;;;8.32;7.53;;;;;;;;;;5036539;28;20090;-63
2023/06/21 10:10:58;;;;;;;9.43;8.48;;;;;;;;;;5036507;28;20381;-63
2023/06/21 10:13:27;;;;;;;9.23;8.40;;;;;;;;;;5036075;28;20067;-63
2023/06/21 10:15:56;;;;;;;8.88;7.60;;;;;;;;;;5036344;28;20033;-63
2023/06/21 10:18:21;;;;;;;10.23;7.63;;;;;;;;;;5036375;28;20111;-63
2023/06/21 10:20:56;;;;;;;8.73;7.90;;;;;;;;;;5036040;28;20493;-63
2023/06/21 10:23:21;;;;;;;9.05;8.15;;;;;;;;;;5036525;28;20049;-63
2023/06/21 10:25:47;;;;;;;10.80;8.63;;;;;;;;;;5018493;28;20048;-63
2023/06/21 10:28:14;;;;;;;10.18;9.18;;;;;;;;;;5018102;28;20045;-63
2023/06/21 10:30:42;;;;;;;11.38;8.27;;;;;;;;;;5035690;28;20060;-63
2023/06/21 10:33:08;;;;;;;9.05;8.32;;;;;;;;;;5017910;28;20067;-63
2023/06/21 10:35:36;;;;;;;10.18;9.18;;;;;;;;;;5035759;28;20080;-63
2023/06/21 10:38:11;;;;;;;9.15;8.35;;;;;;;;;;5035312;28;20120;-63
2023/06/21 10:40:37;;;;;;;11.05;8.48;;;;;;;;;;5035939;28;20045;-63
2023/06/21 10:43:03;;;;;;;9.77;8.98;;;;;;;;;;5035580;28;20049;-63
2023/06/21 10:45:28;;;;;;;10.45;9.55;;;;;;;;;;5035605;28;20029;-63
2023/06/21 10:47:56;;;;;;;10.27;9.38;;;;;;;;;;5035800;28;20045;-63
2023/06/21 10:50:23;;;;;;;10.18;9.15;;;;;;;;;;5017785;28;20045;-63
2023/06/21 10:52:52;;;;;;;11.50;10.50;;;;;;;;;;5035298;28;20038;-63
2023/06/21 10:55:19;;;;;;;10.93;9.95;;;;;;;;;;5035091;28;20033;-68
2023/06/21 10:57:45;;;;;;;10.52;9.52;;;;;;;;;;5017306;28;20030;-63
2023/06/21 11:00:12;;;;;;;11.45;9.23;;;;;;;;;;5034610;28;20045;-68
2023/06/21 11:02:38;;;;;;;11.10;10.02;;;;;;;;;;5016964;28;20045;-69
2023/06/21 11:05:14;;;;;;;11.43;10.30;;;;;;;;;;5033952;28;20044;-69
2023/06/21 11:07:50;;;;;;;12.48;10.85;;;;;;;;;;5016554;28;20091;-63
2023/06/21 11:10:16;;;;;;;12.77;11.55;;;;;;;;;;5034341;28;20057;-63
2023/06/21 11:12:41;;;;;;;14.27;11.23;;;;;;;;;;5033847;28;20041;-63
2023/06/21 11:15:07;;;;;;;15.23;10.95;;;;;;;;;;5034198;28;20036;-63
2023/06/21 11:17:36;;;;;;;12.77;10.65;;;;;;;;;;5016097;28;20045;-63
2023/06/21 11:20:20;;;;;;;11.77;9.50;;;;;;;;;;5015930;28;20117;-63
2023/06/21 11:23:06;;;;;;;10.40;9.38;;;;;;;;;;5033742;28;20507;-63
2023/06/21 11:25:36;;;;;;;11.85;9.50;;;;;;;;;;5033669;28;20109;-63
2023/06/21 11:28:19;;;;;;;10.35;8.98;;;;;;;;;;5033644;28;20040;-63
2023/06/21 11:31:03;;;;;;;10.38;9.48;;;;;;;;;;5033367;28;20511;-63
2023/06/21 11:33:30;;;;;;;11.15;9.95;;;;;;;;;;5033464;28;20029;-63
2023/06/21 11:36:02;;;;;;;10.45;9.45;;;;;;;;;;5015758;28;20412;-63
2023/06/21 11:38:29;;;;;;;12.18;10.98;;;;;;;;;;5033311;28;20069;-63
2023/06/21 11:40:55;;;;;;;12.60;11.40;;;;;;;;;;5015777;28;20472;-63
2023/06/21 11:43:21;;;;;;;12.57;11.45;;;;;;;;;;5033343;28;20143;-63
2023/06/21 11:45:56;;;;;;;12.93;11.55;;;;;;;;;;5033576;28;20134;-63
2023/06/21 11:48:24;;;;;;;13.02;11.82;;;;;;;;;;5033164;28;20048;-63
2023/06/21 11:50:50;;;;;;;14.50;12.60;;;;;;;;;;5032634;28;20172;-63
2023/06/21 11:53:23;;;;;;;13.02;11.82;;;;;;;;;;5033110;28;20116;-63
2023/06/21 11:55:59;;;;;;;14.80;12.32;;;;;;;;;;5015433;28;20179;-63
2023/06/21 11:58:25;;;;;;;13.60;12.35;;;;;;;;;;5032821;28;20538;-63
2023/06/21 12:00:52;;;;;;;13.95;12.27;;;;;;;;;;5015654;28;20116;-63
2023/06/21 12:03:18;;;;;;;15.85;12.48;;;;;;;;;;5033598;28;20045;-63
2023/06/21 12:05:44;;;;;;;13.90;12.63;;;;;;;;;;5033777;28;20052;-63
2023/06/21 12:08:10;;;;;;;17.52;14.40;;;;;;;;;;5032881;28;20116;-63
2023/06/21 12:10:35;;;;;;;14.98;13.35;;;;;;;;;;5032880;28;20072;-63
2023/06/21 12:13:04;;;;;;;15.55;13.98;;;;;;;;;;5033014;28;20041;-63
2023/06/21 12:15:30;;;;;;;17.17;14.57;;;;;;;;;;5014769;28;20384;-63
2023/06/21 12:17:55;;;;;;;14.88;12.65;;;;;;;;;;5039087;28;20029;-63
2023/06/21 12:20:20;;;;;;;17.45;13.82;;;;;;;;;;5032823;28;20103;-68
2023/06/21 12:22:49;;;;;;;12.48;11.27;;;;;;;;;;5032620;28;20040;-68
2023/06/21 12:25:14;;;;;;;14.45;13.05;;;;;;;;;;5032964;28;20064;-68
2023/06/21 12:27:52;;;;;;;12.80;11.65;;;;;;;;;;5033711;28;20033;-68
2023/06/21 12:30:18;;;;;;;11.40;10.25;;;;;;;;;;5033328;28;20413;-67
2023/06/21 12:32:43;;;;;;;12.77;10.73;;;;;;;;;;5015844;28;20046;-67
2023/06/21 12:35:08;;;;;;;12.35;11.10;;;;;;;;;;5033295;28;20045;-67
2023/06/21 12:37:34;;;;;;;13.90;12.30;;;;;;;;;;5032591;28;20039;-66
2023/06/21 12:40:00;;;;;;;14.05;12.70;;;;;;;;;;5015115;28;20069;-62
2023/06/21 12:42:30;;;;;;;14.60;12.15;;;;;;;;;;5033407;28;20041;-62
2023/06/21 12:44:58;;;;;;;12.40;11.20;;;;;;;;;;5033273;28;20056;-64
2023/06/21 12:47:23;;;;;;;13.88;12.48;;;;;;;;;;5033371;28;20055;-65
2023/06/21 12:49:49;;;;;;;14.05;12.55;;;;;;;;;;5032523;28;20029;-64
2023/06/21 12:52:14;;;;;;;13.77;12.45;;;;;;;;;;5031542;28;20038;-64
2023/06/21 12:54:58;;;;;;;13.98;12.60;;;;;;;;;;5032449;28;20038;-65
2023/06/21 12:57:31;;;;;;;13.77;12.32;;;;;;;;;;5032603;28;20030;-64
2023/06/21 12:59:56;;;;;;;14.25;12.85;;;;;;;;;;5031833;28;20671;-64
2023/06/21 13:02:26;;;;;;;14.18;12.77;;;;;;;;;;5017760;28;20041;-64
2023/06/21 13:04:52;;;;;;;13.70;12.30;;;;;;;;;;5035567;28;20056;-65
2023/06/21 13:07:17;;;;;;;13.35;11.95;;;;;;;;;;5036021;28;20037;-64
2023/06/21 13:09:43;;;;;;;12.68;11.48;;;;;;;;;;5036140;28;20044;-65
2023/06/21 13:12:08;;;;;;;14.38;12.02;;;;;;;;;;5036705;28;20037;-63
2023/06/21 13:14:37;;;;;;;13.90;12.38;;;;;;;;;;5019512;28;20053;-64
2023/06/21 13:17:02;;;;;;;15.23;13.75;;;;;;;;;;5036829;28;20362;-64
2023/06/21 13:19:27;;;;;;;16.67;14.85;;;;;;;;;;5036690;28;20161;-67
2023/06/21 13:21:53;;;;;;;15.73;14.13;;;;;;;;;;5018898;28;20049;-69
2023/06/21 13:24:18;;;;;;;17.40;14.45;;;;;;;;;;5017951;28;20061;-68
2023/06/21 13:26:44;;;;;;;16.60;14.98;;;;;;;;;;5035955;28;20496;-69
2023/06/21 13:29:09;;;;;;;15.98;14.32;;;;;;;;;;5035673;28;20083;-69
2023/06/21 13:31:35;;;;;;;16.05;14.45;;;;;;;;;;5035433;28;20136;-70
2023/06/21 13:34:00;;;;;;;18.70;14.55;;;;;;;;;;5036046;28;20040;-69
2023/06/21 13:36:26;;;;;;;18.42;14.23;;;;;;;;;;5035950;28;20144;-69
2023/06/21 13:38:51;;;;;;;16.13;14.52;;;;;;;;;;5018623;28;20053;-70
2023/06/21 13:41:17;;;;;;;16.17;14.57;;;;;;;;;;5018574;28;20108;-70
2023/06/21 13:43:44;;;;;;;15.48;13.93;;;;;;;;;;5035568;28;20474;-70
2023/06/21 13:46:09;;;;;;;16.40;14.73;;;;;;;;;;5032689;28;20099;-70
2023/06/21 13:48:34;;;;;;;17.55;15.75;;;;;;;;;;5034987;28;20448;-69
2023/06/21 13:51:00;;;;;;;16.23;14.70;;;;;;;;;;5034993;28;20128;-69
2023/06/21 13:53:26;;;;;;;15.93;14.32;;;;;;;;;;5034835;28;20543;-69
2023/06/21 13:55:52;;;;;;;13.82;12.52;;;;;;;;;;4998574;28;20048;-69
2023/06/21 13:58:17;;;;;;;16.27;14.35;;;;;;;;;;5016524;28;20525;-69
2023/06/21 14:00:43;;;;;;;16.20;14.60;;;;;;;;;;5014904;28;20038;-69
2023/06/21 14:03:09;;;;;;;14.55;12.95;;;;;;;;;;5015635;28;20069;-69
2023/06/21 14:05:34;;;;;;;16.75;15.00;;;;;;;;;;4998351;28;20124;-69
2023/06/21 14:07:59;;;;;;;16.13;14.52;;;;;;;;;;5016207;28;20040;-69
2023/06/21 14:10:25;;;;;;;16.00;14.40;;;;;;;;;;5015385;28;20685;-69
2023/06/21 14:12:50;;;;;;;13.65;12.27;;;;;;;;;;5013410;28;20042;-69
2023/06/21 14:15:16;;;;;;;14.02;12.63;;;;;;;;;;5016270;28;20029;-69
2023/06/21 14:17:42;;;;;;;16.38;14.73;;;;;;;;;;5015219;28;20042;-69
2023/06/21 14:20:09;;;;;;;15.68;13.85;;;;;;;;;;4997466;28;20030;-69
2023/06/21 14:22:35;;;;;;;14.80;13.45;;;;;;;;;;5014681;28;20604;-69
2023/06/21 14:25:00;;;;;;;14.30;13.00;;;;;;;;;;5013329;28;20125;-69
2023/06/21 14:27:26;;;;;;;14.63;13.23;;;;;;;;;;5014439;28;20185;-69
2023/06/21 14:29:54;;;;;;;16.70;13.98;;;;;;;;;;5014670;28;20042;-69